createdAt,value
2019-04-05T00:00:16.985Z,69.20
2019-04-05T00:02:46.444Z,68.48
2019-04-05T00:05:16.219Z,68.22
2019-04-05T00:07:45.675Z,68.37
2019-04-05T00:10:15.316Z,67.45
2019-04-05T00:12:44.697Z,68.37
2019-04-05T00:15:15.913Z,69.25
2019-04-05T00:17:45.562Z,69.05
2019-04-05T00:20:15.997Z,68.81
2019-04-05T00:22:45.387Z,69.31
2019-04-05T00:25:15.736Z,68.27
2019-04-05T00:27:46.745Z,67.93
2019-04-05T00:30:16.279Z,67.79
2019-04-05T00:32:45.676Z,68.52
2019-04-05T00:35:15.151Z,69.62
2019-04-05T00:37:44.530Z,69.03
2019-04-05T00:40:14.810Z,68.96
2019-04-05T00:42:44.403Z,68.25
2019-04-05T00:45:27.247Z,68.58
2019-04-05T00:47:45.854Z,68.26
2019-04-05T00:50:15.489Z,68.13
2019-04-05T00:52:44.875Z,68.34
2019-04-05T00:55:14.857Z,68.05
2019-04-05T00:57:44.446Z,69.79
2019-04-05T01:00:15.023Z,70.50
2019-04-05T01:02:44.535Z,70.42
2019-04-05T01:05:14.490Z,69.51
2019-04-05T01:07:44.698Z,69.12
2019-04-05T01:10:15.131Z,68.63
2019-04-05T01:12:46.133Z,68.37
2019-04-05T01:15:16.869Z,68.57
2019-04-05T01:17:46.338Z,68.53
2019-04-05T01:20:15.895Z,70.36
2019-04-05T01:22:46.328Z,69.69
2019-04-05T01:25:15.714Z,69.72
2019-04-05T01:27:48.232Z,69.68
2019-04-05T01:30:16.483Z,69.65
2019-04-05T01:32:47.219Z,69.15
2019-04-05T01:35:16.754Z,67.78
2019-04-05T01:37:46.777Z,67.37
2019-04-05T01:40:16.327Z,67.88
2019-04-05T01:42:46.654Z,68.64
2019-04-05T01:45:16.290Z,68.93
2019-04-05T01:47:45.791Z,68.01
2019-04-05T01:50:15.308Z,67.44
2019-04-05T01:52:45.075Z,66.72
2019-04-05T01:55:15.526Z,66.99
2019-04-05T01:57:45.646Z,67.31
2019-04-05T02:00:16.091Z,67.27
2019-04-05T02:02:46.258Z,66.94
2019-04-05T02:05:16.587Z,66.74
2019-04-05T02:07:46.586Z,66.07
2019-04-05T02:10:16.734Z,66.21
2019-04-05T02:12:47.039Z,65.69
2019-04-05T02:15:25.586Z,66.68
2019-04-05T02:17:55.400Z,65.35
2019-04-05T02:20:25.184Z,66.17
2019-04-05T02:22:54.661Z,66.34
2019-04-05T02:25:24.498Z,67.51
2019-04-05T02:27:53.871Z,67.87
2019-04-05T02:30:23.399Z,67.19
2019-04-05T02:32:52.865Z,66.94
2019-04-05T02:35:22.315Z,68.35
2019-04-05T02:37:51.703Z,66.26
2019-04-05T02:40:22.674Z,66.10
2019-04-05T02:42:54.863Z,68.53
2019-04-05T02:45:25.497Z,66.76
2019-04-05T02:47:57.920Z,66.39
2019-04-05T02:50:28.129Z,65.78
2019-04-05T02:53:00.498Z,66.48
2019-04-05T02:55:31.344Z,66.98
2019-04-05T02:58:03.437Z,66.29
2019-04-05T03:00:33.948Z,66.06
2019-04-05T03:03:05.817Z,66.88
2019-04-05T03:05:35.036Z,67.07
2019-04-05T03:08:04.932Z,67.59
2019-04-05T03:10:53.298Z,67.28
2019-04-05T03:13:26.951Z,67.32
2019-04-05T03:15:59.320Z,67.44
2019-04-05T03:18:30.937Z,66.88
2019-04-05T03:21:01.083Z,67.28
2019-04-05T03:23:32.764Z,66.78
2019-04-05T03:26:02.932Z,67.41
2019-04-05T03:28:35.005Z,65.97
2019-04-05T03:31:04.537Z,66.17
2019-04-05T03:33:34.261Z,66.89
2019-04-05T03:36:03.784Z,66.62
2019-04-05T03:38:33.379Z,66.09
2019-04-05T03:41:02.841Z,67.13
2019-04-05T03:43:32.282Z,67.29
2019-04-05T03:46:01.810Z,66.45
2019-04-05T03:48:31.261Z,67.88
2019-04-05T03:51:01.022Z,66.33
2019-04-05T03:53:30.646Z,65.64
2019-04-05T03:56:00.680Z,66.48
2019-04-05T03:58:30.201Z,67.10
2019-04-05T04:01:00.085Z,65.41
2019-04-05T04:03:29.612Z,64.58
2019-04-05T04:05:59.137Z,65.08
2019-04-05T04:08:28.609Z,65.41
2019-04-05T04:10:58.416Z,65.10
2019-04-05T04:13:28.721Z,63.84
2019-04-05T04:15:59.601Z,63.29
2019-04-05T04:18:29.094Z,65.61
2019-04-05T04:21:05.316Z,65.61
2019-04-05T04:23:35.355Z,64.99
2019-04-05T04:26:05.062Z,65.62
2019-04-05T04:28:34.693Z,65.42
2019-04-05T04:31:04.324Z,65.51
2019-04-05T04:33:33.972Z,66.99
2019-04-05T04:36:03.908Z,67.14
2019-04-05T04:38:33.533Z,67.54
2019-04-05T04:41:03.148Z,68.25
2019-04-05T04:43:32.672Z,69.11
2019-04-05T04:46:02.720Z,67.93
2019-04-05T04:48:32.943Z,67.75
2019-04-05T04:51:02.582Z,68.06
2019-04-05T04:53:32.922Z,66.89
2019-04-05T04:56:03.067Z,68.52
2019-04-05T04:58:33.166Z,66.99
2019-04-05T05:01:03.333Z,68.57
2019-04-05T05:03:33.909Z,67.86
2019-04-05T05:06:04.149Z,67.73
2019-04-05T05:08:33.969Z,67.54
2019-04-05T05:11:14.029Z,66.39
2019-04-05T05:13:35.996Z,66.30
2019-04-05T05:16:05.474Z,64.98
2019-04-05T05:18:35.088Z,64.49
2019-04-05T05:21:05.925Z,65.48
2019-04-05T05:23:35.735Z,64.85
2019-04-05T05:26:06.246Z,65.19
2019-04-05T05:28:36.157Z,66.01
2019-04-05T05:31:06.521Z,64.14
2019-04-05T05:33:36.649Z,64.67
2019-04-05T05:36:10.262Z,64.62
2019-04-05T05:38:38.502Z,63.69
2019-04-05T05:41:08.096Z,62.92
2019-04-05T05:43:37.871Z,62.17
2019-04-05T05:46:07.855Z,62.17
2019-04-05T05:48:38.772Z,60.51
2019-04-05T05:51:09.163Z,59.75
2019-04-05T05:53:38.618Z,60.35
2019-04-05T05:56:08.745Z,57.61
2019-04-05T05:58:38.909Z,59.90
2019-04-05T06:01:09.270Z,58.44
2019-04-05T06:03:39.375Z,58.84
2019-04-05T06:06:09.737Z,59.34
2019-04-05T06:08:39.943Z,56.86
2019-04-05T06:11:10.146Z,55.96
2019-04-05T06:13:40.416Z,56.73
2019-04-05T06:16:10.696Z,55.88
2019-04-05T06:18:41.009Z,55.34
2019-04-05T06:21:11.187Z,54.30
2019-04-05T06:23:41.358Z,55.87
2019-04-05T06:26:11.628Z,55.41
2019-04-05T06:28:41.942Z,56.04
2019-04-05T06:31:12.157Z,56.58
2019-04-05T06:33:42.363Z,56.12
2019-04-05T06:36:12.674Z,56.51
2019-04-05T06:38:42.928Z,56.33
2019-04-05T06:41:13.143Z,56.22
2019-04-05T06:43:43.367Z,56.68
2019-04-05T06:46:13.606Z,55.74
2019-04-05T06:48:43.802Z,56.32
2019-04-05T06:51:14.156Z,55.80
2019-04-05T06:53:44.385Z,54.42
2019-04-05T06:56:14.674Z,54.70
2019-04-05T06:58:46.461Z,55.77
2019-04-05T07:01:15.960Z,56.08
2019-04-05T07:03:45.442Z,55.69
2019-04-05T07:06:15.803Z,55.38
2019-04-05T07:08:53.546Z,54.97
2019-04-05T07:11:16.987Z,54.49
2019-04-05T07:13:46.460Z,54.81
2019-04-05T07:16:16.821Z,57.18
2019-04-05T07:18:46.975Z,58.82
2019-04-05T07:21:17.583Z,58.27
2019-04-05T07:23:47.751Z,59.67
2019-04-05T07:26:20.822Z,59.57
2019-04-05T07:28:48.971Z,61.17
2019-04-05T07:31:18.424Z,60.78
2019-04-05T07:33:48.621Z,59.30
2019-04-05T07:36:18.909Z,58.42
2019-04-05T07:38:49.168Z,59.29
2019-04-05T07:41:19.492Z,57.98
2019-04-05T07:43:49.579Z,58.81
2019-04-05T07:46:19.916Z,57.97
2019-04-05T07:48:50.059Z,59.09
2019-04-05T07:51:22.756Z,57.52
2019-04-05T07:53:51.577Z,59.79
2019-04-05T07:56:21.221Z,60.60
2019-04-05T07:58:51.111Z,60.54
2019-04-05T08:01:21.517Z,60.07
2019-04-05T08:03:51.637Z,60.46
2019-04-05T08:06:21.897Z,59.84
2019-04-05T08:09:02.254Z,59.55
2019-04-05T08:11:33.098Z,56.74
2019-04-05T08:14:02.620Z,58.97
2019-04-05T08:16:32.085Z,59.94
2019-04-05T08:19:01.533Z,57.76
2019-04-05T08:21:30.992Z,58.69
2019-04-05T08:24:01.424Z,58.12
2019-04-05T08:26:30.904Z,57.53
2019-04-05T08:29:00.576Z,57.54
2019-04-05T08:31:29.982Z,57.60
2019-04-05T08:33:59.372Z,58.61
2019-04-05T08:36:28.771Z,58.90
2019-04-05T08:38:58.156Z,57.53
2019-04-05T08:41:27.558Z,58.08
2019-04-05T08:43:56.964Z,55.69
2019-04-05T08:46:26.353Z,55.69
2019-04-05T08:48:56.309Z,57.35
2019-04-05T08:51:26.716Z,56.86
2019-04-05T08:53:56.810Z,53.99
2019-04-05T08:56:27.053Z,57.88
2019-04-05T08:58:57.276Z,60.66
2019-04-05T09:01:27.470Z,61.72
2019-04-05T09:03:57.601Z,61.34
2019-04-05T09:06:27.873Z,63.25
2019-04-05T09:08:58.055Z,62.35
2019-04-05T09:11:28.397Z,63.69
2019-04-05T09:13:58.565Z,64.05
2019-04-05T09:16:28.812Z,64.34
2019-04-05T09:18:59.048Z,65.37
2019-04-05T09:21:29.434Z,64.37
2019-04-05T09:23:59.781Z,61.95
2019-04-05T09:26:29.970Z,63.98
2019-04-05T09:29:00.106Z,64.52
2019-04-05T09:31:30.521Z,64.14
2019-04-05T09:34:01.957Z,62.31
2019-04-05T09:36:31.360Z,60.70
2019-04-05T09:39:01.208Z,61.52
2019-04-05T09:41:32.074Z,59.94
2019-04-05T09:44:01.728Z,59.26
2019-04-05T09:46:46.036Z,59.46
2019-04-05T09:49:06.026Z,59.41
2019-04-05T09:51:35.410Z,63.79
2019-04-05T09:54:05.038Z,62.53
2019-04-05T09:56:34.526Z,61.38
2019-04-05T09:59:03.906Z,62.09
2019-04-05T10:01:33.657Z,62.10
2019-04-05T10:04:03.786Z,61.10
2019-04-05T10:06:34.106Z,59.67
2019-04-05T10:09:06.018Z,61.80
2019-04-05T10:11:35.480Z,61.57
2019-04-05T10:14:05.042Z,62.38
2019-04-05T10:16:35.018Z,62.71
2019-04-05T10:19:05.452Z,62.59
2019-04-05T10:21:35.609Z,61.30
2019-04-05T10:24:05.871Z,60.10
2019-04-05T10:26:36.074Z,60.83
2019-04-05T10:29:06.232Z,60.22
2019-04-05T10:31:36.573Z,62.14
2019-04-05T10:34:06.771Z,63.11
2019-04-05T10:36:37.066Z,62.07
2019-04-05T10:39:09.573Z,64.34
2019-04-05T10:41:38.975Z,60.70
2019-04-05T10:44:13.822Z,61.31
2019-04-05T10:46:43.279Z,64.90
2019-04-05T10:49:15.100Z,66.34
2019-04-05T10:51:44.718Z,65.38
2019-04-05T10:54:14.121Z,62.70
2019-04-05T10:56:43.508Z,61.58
2019-04-05T10:59:12.967Z,62.27
2019-04-05T11:01:42.369Z,64.31
2019-04-05T11:04:11.825Z,66.69
2019-04-05T11:06:41.358Z,66.32
2019-04-05T11:09:10.885Z,69.25
2019-04-05T11:11:40.689Z,66.62
2019-04-05T11:14:13.993Z,68.37
2019-04-05T11:16:42.053Z,69.51
2019-04-05T11:19:11.451Z,71.60
2019-04-05T11:21:41.817Z,70.72
2019-04-05T11:24:12.090Z,67.35
2019-04-05T11:26:42.188Z,69.64
2019-04-05T11:29:14.255Z,68.17
2019-04-05T11:31:55.970Z,65.61
2019-04-05T11:34:14.833Z,67.13
2019-04-05T11:36:44.572Z,70.21
2019-04-05T11:39:13.958Z,67.70
2019-04-05T11:41:44.454Z,71.66
2019-04-05T11:44:14.016Z,70.91
2019-04-05T11:46:49.180Z,74.99
2019-04-05T11:49:17.195Z,74.99
2019-04-05T11:51:46.668Z,76.44
2019-04-05T11:54:18.391Z,75.69
2019-04-05T11:56:47.153Z,74.21
2019-04-05T11:59:16.970Z,75.74
2019-04-05T12:01:48.007Z,70.65
2019-04-05T12:04:17.419Z,73.59
2019-04-05T12:06:46.809Z,74.65
2019-04-05T12:09:16.387Z,74.95
2019-04-05T12:11:46.638Z,73.52
2019-04-05T12:14:29.660Z,74.34
2019-04-05T12:16:49.225Z,72.59
2019-04-05T12:19:18.623Z,70.12
2019-04-05T12:21:48.024Z,72.45
2019-04-05T12:24:17.692Z,74.47
2019-04-05T12:26:47.892Z,74.09
2019-04-05T12:29:18.109Z,64.79
2019-04-05T12:31:48.613Z,71.74
2019-04-05T12:34:21.471Z,72.83
2019-04-05T12:36:50.558Z,73.33
2019-04-05T12:39:20.777Z,76.04
2019-04-05T12:41:50.185Z,77.04
2019-04-05T12:44:19.577Z,76.30
2019-04-05T12:46:48.973Z,77.07
2019-04-05T12:49:18.888Z,75.43
2019-04-05T12:51:48.916Z,74.47
2019-04-05T12:54:18.908Z,76.53
2019-04-05T12:56:48.921Z,76.48
2019-04-05T12:59:18.940Z,76.69
2019-04-05T13:01:49.013Z,76.15
2019-04-05T13:04:20.755Z,75.81
2019-04-05T13:06:50.621Z,75.99
2019-04-05T13:09:23.662Z,76.17
2019-04-05T13:11:52.515Z,76.58
2019-04-05T13:14:21.920Z,77.77
2019-04-05T13:16:51.319Z,76.83
2019-04-05T13:19:21.808Z,78.21
2019-04-05T13:21:51.198Z,76.03
2019-04-05T13:24:20.603Z,77.24
2019-04-05T13:26:49.987Z,77.39
2019-04-05T13:29:20.459Z,77.98
2019-04-05T13:31:49.842Z,77.42
2019-04-05T13:34:19.245Z,78.40
2019-04-05T13:36:49.165Z,79.12
2019-04-05T13:39:19.191Z,78.37
2019-04-05T13:41:49.411Z,76.65
2019-04-05T13:44:19.910Z,76.53
2019-04-05T13:46:49.639Z,75.67
2019-04-05T13:49:19.660Z,73.01
2019-04-05T13:51:49.659Z,71.60
2019-04-05T13:54:19.690Z,72.06
2019-04-05T13:56:49.691Z,75.46
2019-04-05T13:59:19.753Z,73.75
2019-04-05T14:01:51.424Z,74.74
2019-04-05T14:04:21.966Z,73.29
2019-04-05T14:06:53.534Z,70.07
2019-04-05T14:09:22.480Z,73.49
2019-04-05T14:11:51.945Z,74.44
2019-04-05T14:14:21.648Z,74.20
2019-04-05T14:16:53.934Z,73.85
2019-04-05T14:19:22.266Z,74.15
2019-04-05T14:21:53.606Z,74.23
2019-04-05T14:24:23.444Z,73.91
2019-04-05T14:26:53.336Z,75.94
2019-04-05T14:29:22.792Z,75.38
2019-04-05T14:31:52.281Z,71.67
2019-04-05T14:34:23.589Z,69.73
2019-04-05T14:36:52.763Z,71.34
2019-04-05T14:39:23.138Z,74.47
2019-04-05T14:41:52.524Z,73.22
2019-04-05T14:44:21.988Z,72.60
2019-04-05T14:46:51.394Z,72.74
2019-04-05T14:49:20.785Z,72.44
2019-04-05T14:51:53.881Z,72.05
2019-04-05T14:54:21.530Z,73.49
2019-04-05T14:56:50.998Z,71.08
2019-04-05T14:59:20.658Z,72.58
2019-04-05T15:01:50.086Z,72.82
2019-04-05T15:04:20.459Z,72.83
2019-04-05T15:06:50.617Z,72.94
2019-04-05T15:09:24.808Z,69.36
2019-04-05T15:11:51.932Z,72.82
2019-04-05T15:14:21.400Z,71.35
2019-04-05T15:16:50.790Z,73.26
2019-04-05T15:19:20.184Z,73.76
2019-04-05T15:21:50.576Z,73.88
2019-04-05T15:24:20.068Z,73.36
2019-04-05T15:26:51.513Z,74.96
2019-04-05T15:29:21.177Z,74.87
2019-04-05T15:31:50.652Z,72.98
2019-04-05T15:34:20.112Z,75.40
2019-04-05T15:36:50.109Z,77.44
2019-04-05T15:39:20.263Z,75.75
2019-04-05T15:41:50.141Z,76.07
2019-04-05T15:44:20.149Z,74.25
2019-04-05T15:46:50.140Z,73.95
2019-04-05T15:49:21.617Z,73.88
2019-04-05T15:51:54.316Z,73.30
2019-04-05T15:54:22.326Z,73.59
2019-04-05T15:56:51.728Z,75.21
2019-04-05T16:54:58.667Z,75.57
2019-04-05T16:57:28.129Z,74.21
2019-04-05T16:59:57.533Z,73.86
2019-04-05T17:02:26.921Z,72.70
2019-04-05T17:04:56.356Z,73.78
2019-04-05T17:07:25.708Z,73.65
2019-04-05T17:09:55.207Z,71.71
2019-04-05T17:12:24.559Z,72.92
2019-04-05T17:14:53.957Z,73.55
2019-04-05T17:17:23.445Z,73.63
2019-04-05T17:19:53.510Z,69.85
2019-04-05T17:22:23.532Z,67.96
2019-04-05T17:24:53.537Z,71.04
2019-04-05T17:27:23.555Z,73.12
2019-04-05T17:29:53.605Z,75.40
2019-04-05T17:32:23.588Z,75.48
2019-04-05T17:34:53.615Z,73.34
2019-04-05T17:37:26.501Z,71.07
2019-04-05T17:39:54.814Z,72.41
2019-04-05T17:42:24.220Z,72.72
2019-04-05T17:44:53.603Z,72.32
2019-04-05T17:47:23.601Z,71.92
2019-04-05T17:49:53.614Z,74.64
2019-04-05T17:52:23.574Z,72.43
2019-04-05T17:54:53.635Z,74.60
2019-04-05T17:57:23.805Z,74.80
2019-04-05T17:59:53.959Z,75.29
2019-04-05T18:02:23.782Z,76.42
2019-04-05T18:04:53.622Z,76.23
2019-04-05T18:07:23.645Z,76.28
2019-04-05T18:09:53.750Z,74.87
2019-04-05T18:12:23.761Z,74.84
2019-04-05T18:14:53.683Z,75.13
2019-04-05T18:17:23.700Z,76.04
2019-04-05T18:19:53.732Z,75.87
2019-04-05T18:22:23.724Z,76.21
2019-04-05T18:24:53.755Z,75.44
2019-04-05T18:27:23.720Z,74.80
2019-04-05T18:29:53.785Z,76.09
2019-04-05T18:32:23.949Z,77.06
2019-04-05T18:34:59.349Z,76.69
2019-04-05T18:37:28.879Z,76.39
2019-04-05T18:39:58.318Z,77.90
2019-04-05T18:42:27.726Z,78.69
2019-04-05T18:44:58.192Z,77.29
2019-04-05T18:47:27.582Z,76.90
2019-04-05T18:50:02.953Z,77.47
2019-04-05T18:52:28.069Z,77.39
2019-04-05T18:54:57.444Z,78.07
2019-04-05T18:57:26.841Z,77.88
2019-04-05T18:59:56.229Z,77.91
2019-04-05T19:02:25.611Z,77.77
2019-04-05T19:04:55.008Z,77.23
2019-04-05T19:07:24.490Z,78.68
2019-04-05T19:09:53.975Z,77.24
2019-04-05T19:12:23.953Z,77.28
2019-04-05T19:14:54.016Z,77.85
2019-04-05T19:17:24.664Z,79.08
2019-04-05T19:19:54.158Z,78.24
2019-04-05T19:22:23.991Z,78.50
2019-04-05T19:24:54.002Z,78.04
2019-04-05T19:27:24.088Z,76.34
2019-04-05T19:29:55.079Z,76.69
2019-04-05T19:50:02.316Z,76.70
2019-04-05T19:52:31.723Z,78.15
2019-04-05T19:55:01.163Z,75.45
2019-04-05T19:57:30.604Z,76.74
2019-04-05T19:59:59.992Z,77.31
2019-04-05T20:02:29.456Z,75.96
2019-04-05T20:04:58.950Z,76.29
2019-04-05T20:07:28.319Z,74.15
2019-04-05T20:09:57.763Z,76.79
2019-04-05T20:12:27.278Z,77.38
2019-04-05T20:14:56.647Z,78.89
2019-04-05T20:17:26.036Z,78.86
2019-04-05T20:19:55.419Z,78.80
2019-04-05T20:22:24.811Z,79.49
2019-04-05T20:24:54.334Z,77.28
2019-04-05T20:27:24.263Z,77.86
2019-04-05T20:29:54.289Z,76.06
2019-04-05T20:32:24.356Z,76.53
2019-04-05T20:34:54.463Z,76.63
2019-04-05T20:37:24.476Z,75.48
2019-04-05T20:39:54.520Z,73.91
2019-04-05T20:42:24.426Z,76.17
2019-04-05T20:44:54.423Z,78.68
2019-04-05T20:47:24.452Z,79.83
2019-04-05T20:49:54.805Z,80.36
2019-04-05T20:52:25.083Z,79.98
2019-04-05T20:54:54.937Z,80.72
2019-04-05T20:57:25.155Z,80.17
2019-04-05T20:59:55.356Z,79.03
2019-04-05T21:02:25.715Z,79.03
2019-04-05T21:04:55.818Z,78.53
2019-04-05T21:07:26.248Z,78.81
2019-04-05T21:09:56.619Z,80.08
2019-04-05T21:12:26.587Z,79.54
2019-04-05T21:14:56.708Z,78.88
2019-04-05T21:17:27.121Z,78.47
2019-04-05T21:19:57.226Z,79.29
2019-04-05T21:22:27.837Z,78.24
2019-04-05T21:24:57.671Z,78.59
2019-04-05T21:27:27.862Z,78.32
2019-04-05T21:29:58.067Z,77.55
2019-04-05T21:32:28.459Z,76.70
2019-04-05T21:34:58.597Z,76.41
2019-04-05T21:37:28.924Z,77.76
2019-04-05T21:39:59.118Z,79.17
2019-04-05T21:42:29.360Z,78.72
2019-04-05T21:44:59.534Z,80.16
2019-04-05T21:47:29.989Z,80.07
2019-04-05T21:50:00.105Z,78.63
2019-04-05T21:52:30.235Z,78.49
2019-04-05T21:55:00.398Z,78.64
2019-04-05T21:57:30.701Z,78.79
2019-04-05T22:00:00.852Z,78.31
2019-04-05T22:02:31.193Z,79.27
2019-04-05T22:05:01.463Z,79.11
2019-04-05T22:07:31.895Z,75.39
2019-04-05T22:10:01.795Z,76.39
2019-04-05T22:12:32.146Z,77.79
2019-04-05T22:15:02.170Z,77.93
2019-04-05T22:17:32.753Z,78.88
2019-04-05T22:20:02.748Z,80.23
2019-04-05T22:22:32.818Z,77.71
2019-04-05T22:25:02.745Z,79.42
2019-04-05T22:27:32.682Z,80.79
2019-04-05T22:30:02.694Z,78.09
2019-04-05T22:32:32.701Z,78.98
2019-04-05T22:35:02.795Z,80.11
2019-04-05T22:37:32.801Z,81.41
2019-04-05T22:40:02.826Z,81.87
2019-04-05T22:42:33.164Z,81.97
2019-04-05T22:45:02.758Z,79.58
2019-04-05T22:47:32.771Z,79.24
2019-04-05T22:50:03.895Z,79.42
2019-04-05T22:52:33.236Z,78.34
2019-04-05T22:55:10.967Z,80.74
2019-04-05T22:57:33.953Z,80.97
2019-04-05T23:00:04.665Z,81.76
2019-04-05T23:02:35.664Z,80.04
2019-04-05T23:05:07.036Z,79.45
2019-04-05T23:07:36.428Z,78.79
2019-04-05T23:10:07.747Z,76.27
2019-04-05T23:12:37.129Z,79.53
2019-04-05T23:15:08.038Z,80.38
2019-04-05T23:17:37.467Z,79.89
2019-04-05T23:20:07.575Z,79.52
2019-04-05T23:22:36.946Z,79.53
2019-04-05T23:25:07.367Z,79.02
2019-04-05T23:27:37.713Z,80.37
2019-04-05T23:30:08.199Z,75.44
2019-04-05T23:32:37.586Z,78.09
2019-04-05T23:35:07.486Z,79.29
2019-04-05T23:37:36.873Z,79.55
2019-04-05T23:40:06.896Z,80.24
2019-04-05T23:42:36.287Z,80.46
2019-04-05T23:45:06.692Z,79.28
2019-04-05T23:47:36.072Z,76.85
2019-04-05T23:50:07.154Z,79.22
2019-04-05T23:52:36.526Z,79.75
2019-04-05T23:55:06.938Z,80.69
2019-04-05T23:57:36.601Z,80.13
